Pagina principală
METAR-TAF:

METAR-TAF

Aeroporturi :

Wilbarger County Airport

Vernon, Texas, Statele Unite ale Americii

Latitudine: 34-13-32N, longitudine: 099-17-01W, elevație: 386 m

Observații meteo curente

Raportul a fost făcut în urmă cu 30 de minute, la 22:35 UTC
Vânt 11 kt de la Sud/Sud-vest cu rafale de până la 17 kt
Temperatură 36°C
Umiditate 31%
Presiune 1014 hPa
Vizibilitate: 16.1 km
Nori împrăștiați la o înălțime de 7500 picior

METAR: KF05 222235Z AUTO 21011G17KT 10SM SCT075 36/16 A2995 RMK AO2 T03640164

Ora: 18:05 (23:05 UTC)


TAF: lipsă

Observații și prognoze meteo pentru peste 4.000 de aeroporturi (rapoarte METAR și TAF).

Stațiile disponibile sunt reprezentate pe hartă prin puncte galbene și roșii.

Țineți indicatorul mouse-ului pe punctul dorit pentru a vedea denumirea stației.

Apoi, faceți clic pentru a vedea observațiile și prognozele meteorologice.

Pentru a schimba harta: Pentru mărire, faceți clic pe butoanele verzi cu cruce neagră; pentru micșorare, pe butonul verde cu o liniuță; pentru hărți învecinate, pe săgețile verzi.


METAR-TAF: